Norman Park, GA (31771)

4:54 AM EDT on July 23, 2014 (GMT -0400)
City of Moultrie Service Center (KGAMOULT2) Elev 299 ft | 31.19 °N, 83.79 °W | Change Station

Current weather conditions updated 8 minutes ago

Partly Cloudy
Partly Cloudy
73.3 °F
Feels Like 73.3 °F
N
0.0
Wind Variable Wind from ESE
Gusts 2.0 mph

Today is forecast to be Warmer than yesterday.

Today
High -- | Low -- °F
--% Chance of Precip.
Yesterday
High -- | Low -- °F
Precip. -- in
6:45 AM 8:36 PM
Waning Crescent, 12% visible
Pressure 30.06 in
Visibility 5.0 miles
Clouds Clear
Dew Point 72 °F
Humidity 95%
Rainfall 0.00 in
Snow Depth Not available.
UV 0 out of 12
Pollen 2.80 out of 12
Air Quality Not available.
Flu Activity Not available.
METAR KMGR 230835Z AUTO 00000KT 5SM BR CLR 23/22 A3006 RMK AO2

More Conditions Fewer Conditions

Pressure 30.06 in
Visibility 5.0 miles
Clouds Clear
Dew Point 72 °F
Humidity 95%
Rainfall 0.00 in
Snow Depth Not available.
UV 0 out of 12
Pollen 2.80 out of 12
Air Quality Not available.
Flu Activity Not available.
METAR KMGR 230835Z AUTO 00000KT 5SM BR CLR 23/22 A3006 RMK AO2

More Conditions Fewer Conditions

10-Day Weather Forecast

Almanac

Astronomy

Jul. 23, 2014 Rise Set
Actual Time 6:45 AM EDT 8:36 PM EDT
Civil Twilight 6:19 AM EDT 9:03 PM EDT
Nautical Twilight 5:46 AM EDT 9:35 PM EDT
Astronomical Twilight 5:12 AM EDT 10:09 PM EDT
Moon 4:02 AM EDT 6:05 PM EDT
Length of Visible Light 14h 44m
Length of Day
13h 50m
Tomorrow will be 1m 13s shorter.
Waning Crescent, 12% of the Moon is Illuminated
Today
Waning Crescent
Jul 26
New
Aug 3
First Quarter
Aug 10
Full
Aug 17
Last Quarter

Today's Extremes

State Highs State Lows

Community

WunderPhotos

Upload Photos

1,736,529 photos uploaded!

Nearby

Snow Depth

Station Depth Elevation
No new snow has been reported.

Earthquake Activity

City Distance Mag. Time & Date
No recent earthquake activity has been reported nearby.
Minimum magnitude displayed is 2.5.

Coastal Water Temperatures

Place Temperature
No Stations Reporting

Nearby Weather Stations

Station Location Temp. Dew Point Humidity Wind Precip. Elev Updated Type
City of Moultrie Service Center, Moultrie, GA 73.3 °F 72 °F 95% ESE  at  0.0 mph 0.00 in / hr 299 ft 4:45 AM EDT Normal
RAWS ADEL GA, Cecil, GA 73 °F 71 °F 93% ESE  at  3 mph 0.00 in / hr 231 ft 4:04 AM EDT MADIS
Adel, Georgia, Adel, GA 72.9 °F 70 °F 92% North  at  0.0 mph 0.00 in / hr 253 ft 4:53 AM EDT Rapid Fire
Wood Triple Lake Road, Tifton, GA 72.9 °F 72 °F 96% SSW  at  0.0 mph 0.00 in / hr 322 ft 4:50 AM EDT Normal
Worth County High School, Sylvester, GA 73.2 °F 72 °F 95% North  at  2.0 mph 0.00 in / hr 436 ft 4:50 AM EDT Normal
Forest Lakes, Tifton, GA 72.9 °F 71 °F 94% SSE  at  0.0 mph 0.00 in / hr 329 ft 4:50 AM EDT Normal

Show More Stations Show Fewer Stations